sensor_id;sensor_type;location;lat;lon;timestamp;P1;durP1;ratioP1;P2;durP2;ratioP2
60032;SDS011;45905;50.570;10.428;2022-10-28T00:01:17;6.10;;;5.00;;
60032;SDS011;45905;50.570;10.428;2022-10-28T00:03:54;14.30;;;6.57;;
60032;SDS011;45905;50.570;10.428;2022-10-28T00:06:25;15.40;;;6.43;;
60032;SDS011;45905;50.570;10.428;2022-10-28T00:08:55;9.83;;;5.10;;
60032;SDS011;45905;50.570;10.428;2022-10-28T00:11:33;9.80;;;5.70;;
60032;SDS011;45905;50.570;10.428;2022-10-28T00:14:01;7.13;;;4.60;;
60032;SDS011;45905;50.570;10.428;2022-10-28T00:16:32;10.80;;;5.83;;
60032;SDS011;45905;50.570;10.428;2022-10-28T00:19:04;11.37;;;5.70;;
60032;SDS011;45905;50.570;10.428;2022-10-28T00:21:34;9.93;;;4.90;;
60032;SDS011;45905;50.570;10.428;2022-10-28T00:24:03;11.37;;;5.73;;
60032;SDS011;45905;50.570;10.428;2022-10-28T00:26:32;9.23;;;5.80;;
60032;SDS011;45905;50.570;10.428;2022-10-28T00:29:03;7.70;;;4.60;;
60032;SDS011;45905;50.570;10.428;2022-10-28T00:31:37;4.67;;;3.67;;
60032;SDS011;45905;50.570;10.428;2022-10-28T00:34:06;10.00;;;5.23;;
60032;SDS011;45905;50.570;10.428;2022-10-28T00:36:38;13.30;;;5.10;;
60032;SDS011;45905;50.570;10.428;2022-10-28T00:39:12;21.93;;;4.97;;
60032;SDS011;45905;50.570;10.428;2022-10-28T00:41:47;8.77;;;4.83;;
60032;SDS011;45905;50.570;10.428;2022-10-28T00:50:43;7.90;;;5.47;;
60032;SDS011;45905;50.570;10.428;2022-10-28T00:53:28;12.10;;;5.70;;
60032;SDS011;45905;50.570;10.428;2022-10-28T00:55:58;7.87;;;5.10;;
60032;SDS011;45905;50.570;10.428;2022-10-28T00:58:28;7.53;;;4.60;;
60032;SDS011;45905;50.570;10.428;2022-10-28T01:00:55;24.43;;;7.10;;
60032;SDS011;45905;50.570;10.428;2022-10-28T01:03:22;12.00;;;4.67;;
60032;SDS011;45905;50.570;10.428;2022-10-28T01:05:49;8.97;;;4.67;;
60032;SDS011;45905;50.570;10.428;2022-10-28T01:08:17;6.90;;;4.60;;
60032;SDS011;45905;50.570;10.428;2022-10-28T01:16:44;13.13;;;5.00;;
60032;SDS011;45905;50.570;10.428;2022-10-28T01:19:52;11.80;;;3.80;;
60032;SDS011;45905;50.570;10.428;2022-10-28T01:36:56;6.87;;;3.90;;
60032;SDS011;45905;50.570;10.428;2022-10-28T01:39:44;11.53;;;5.33;;
60032;SDS011;45905;50.570;10.428;2022-10-28T01:42:27;6.40;;;4.50;;
60032;SDS011;45905;50.570;10.428;2022-10-28T01:45:35;6.93;;;3.53;;
60032;SDS011;45905;50.570;10.428;2022-10-28T01:48:25;5.83;;;4.20;;
60032;SDS011;45905;50.570;10.428;2022-10-28T01:53:36;8.47;;;4.87;;
60032;SDS011;45905;50.570;10.428;2022-10-28T01:56:12;6.63;;;5.10;;
60032;SDS011;45905;50.570;10.428;2022-10-28T01:58:46;10.40;;;5.87;;
60032;SDS011;45905;50.570;10.428;2022-10-28T02:01:15;10.73;;;3.60;;
60032;SDS011;45905;50.570;10.428;2022-10-28T02:03:46;8.10;;;5.10;;
60032;SDS011;45905;50.570;10.428;2022-10-28T02:06:15;6.10;;;5.40;;
60032;SDS011;45905;50.570;10.428;2022-10-28T02:18:05;9.47;;;4.83;;
60032;SDS011;45905;50.570;10.428;2022-10-28T02:20:52;7.60;;;4.97;;
60032;SDS011;45905;50.570;10.428;2022-10-28T02:26:12;11.00;;;4.83;;
60032;SDS011;45905;50.570;10.428;2022-10-28T02:34:11;6.67;;;4.17;;
60032;SDS011;45905;50.570;10.428;2022-10-28T02:36:46;8.23;;;4.67;;
60032;SDS011;45905;50.570;10.428;2022-10-28T02:39:22;6.53;;;4.47;;
60032;SDS011;45905;50.570;10.428;2022-10-28T02:41:57;6.93;;;4.13;;
60032;SDS011;45905;50.570;10.428;2022-10-28T02:44:33;7.10;;;5.33;;
60032;SDS011;45905;50.570;10.428;2022-10-28T02:47:08;9.00;;;5.47;;
60032;SDS011;45905;50.570;10.428;2022-10-28T02:49:46;8.87;;;5.50;;
60032;SDS011;45905;50.570;10.428;2022-10-28T02:52:20;8.43;;;4.80;;
60032;SDS011;45905;50.570;10.428;2022-10-28T02:54:57;10.10;;;6.03;;
60032;SDS011;45905;50.570;10.428;2022-10-28T02:57:31;7.73;;;4.60;;
60032;SDS011;45905;50.570;10.428;2022-10-28T03:00:12;8.60;;;5.60;;
60032;SDS011;45905;50.570;10.428;2022-10-28T03:02:44;9.00;;;4.60;;
60032;SDS011;45905;50.570;10.428;2022-10-28T03:05:11;7.50;;;4.90;;
60032;SDS011;45905;50.570;10.428;2022-10-28T03:07:39;19.60;;;5.87;;
60032;SDS011;45905;50.570;10.428;2022-10-28T03:10:07;5.63;;;4.43;;
60032;SDS011;45905;50.570;10.428;2022-10-28T03:12:35;7.47;;;5.13;;
60032;SDS011;45905;50.570;10.428;2022-10-28T03:15:02;5.17;;;4.17;;
60032;SDS011;45905;50.570;10.428;2022-10-28T03:17:29;10.50;;;6.00;;
60032;SDS011;45905;50.570;10.428;2022-10-28T03:19:57;8.70;;;4.47;;
60032;SDS011;45905;50.570;10.428;2022-10-28T03:22:24;7.37;;;5.70;;
60032;SDS011;45905;50.570;10.428;2022-10-28T03:24:51;5.57;;;4.23;;
60032;SDS011;45905;50.570;10.428;2022-10-28T03:27:18;9.67;;;3.77;;
60032;SDS011;45905;50.570;10.428;2022-10-28T03:29:45;5.20;;;4.10;;
60032;SDS011;45905;50.570;10.428;2022-10-28T03:32:12;5.40;;;3.20;;
60032;SDS011;45905;50.570;10.428;2022-10-28T03:34:39;8.20;;;4.40;;
60032;SDS011;45905;50.570;10.428;2022-10-28T03:37:06;14.40;;;4.40;;
60032;SDS011;45905;50.570;10.428;2022-10-28T03:39:34;11.57;;;4.23;;
60032;SDS011;45905;50.570;10.428;2022-10-28T03:42:01;6.87;;;3.47;;
60032;SDS011;45905;50.570;10.428;2022-10-28T03:44:28;8.60;;;4.33;;
60032;SDS011;45905;50.570;10.428;2022-10-28T03:46:55;8.23;;;4.30;;
60032;SDS011;45905;50.570;10.428;2022-10-28T03:49:22;6.57;;;3.57;;
60032;SDS011;45905;50.570;10.428;2022-10-28T03:51:49;6.90;;;4.40;;
60032;SDS011;45905;50.570;10.428;2022-10-28T03:54:16;10.67;;;4.60;;
60032;SDS011;45905;50.570;10.428;2022-10-28T03:56:43;7.17;;;3.43;;
60032;SDS011;45905;50.570;10.428;2022-10-28T03:59:10;9.60;;;4.07;;
60032;SDS011;45905;50.570;10.428;2022-10-28T04:01:41;7.77;;;4.33;;
60032;SDS011;45905;50.570;10.428;2022-10-28T04:04:08;4.60;;;3.60;;
60032;SDS011;45905;50.570;10.428;2022-10-28T04:06:35;7.83;;;3.97;;
60032;SDS011;45905;50.570;10.428;2022-10-28T04:09:02;5.87;;;4.87;;
60032;SDS011;45905;50.570;10.428;2022-10-28T04:11:30;6.40;;;4.27;;
60032;SDS011;45905;50.570;10.428;2022-10-28T04:13:57;6.67;;;4.40;;
60032;SDS011;45905;50.570;10.428;2022-10-28T04:16:24;6.93;;;4.20;;
60032;SDS011;45905;50.570;10.428;2022-10-28T04:18:51;11.03;;;4.73;;
60032;SDS011;45905;50.570;10.428;2022-10-28T04:21:18;4.90;;;3.80;;
60032;SDS011;45905;50.570;10.428;2022-10-28T04:23:45;5.80;;;3.93;;
60032;SDS011;45905;50.570;10.428;2022-10-28T04:26:12;9.33;;;4.70;;
60032;SDS011;45905;50.570;10.428;2022-10-28T04:28:40;7.53;;;4.40;;
60032;SDS011;45905;50.570;10.428;2022-10-28T04:31:07;7.07;;;4.70;;
60032;SDS011;45905;50.570;10.428;2022-10-28T04:33:37;8.87;;;4.10;;
60032;SDS011;45905;50.570;10.428;2022-10-28T04:36:04;7.93;;;4.93;;
60032;SDS011;45905;50.570;10.428;2022-10-28T04:38:32;6.10;;;3.77;;
60032;SDS011;45905;50.570;10.428;2022-10-28T04:40:59;7.33;;;4.47;;
60032;SDS011;45905;50.570;10.428;2022-10-28T04:43:26;7.57;;;4.10;;
60032;SDS011;45905;50.570;10.428;2022-10-28T04:45:53;8.07;;;4.13;;
60032;SDS011;45905;50.570;10.428;2022-10-28T04:48:20;8.90;;;5.43;;
60032;SDS011;45905;50.570;10.428;2022-10-28T04:50:47;9.27;;;4.10;;
60032;SDS011;45905;50.570;10.428;2022-10-28T04:53:14;3.60;;;2.90;;
60032;SDS011;45905;50.570;10.428;2022-10-28T04:55:41;8.07;;;4.67;;
60032;SDS011;45905;50.570;10.428;2022-10-28T04:58:08;8.17;;;4.90;;
60032;SDS011;45905;50.570;10.428;2022-10-28T05:00:35;13.40;;;6.40;;
60032;SDS011;45905;50.570;10.428;2022-10-28T05:03:02;7.50;;;4.57;;
60032;SDS011;45905;50.570;10.428;2022-10-28T05:05:30;16.73;;;4.60;;
60032;SDS011;45905;50.570;10.428;2022-10-28T05:07:57;10.17;;;6.17;;
60032;SDS011;45905;50.570;10.428;2022-10-28T05:10:24;12.03;;;5.50;;
60032;SDS011;45905;50.570;10.428;2022-10-28T05:12:52;6.43;;;4.63;;
60032;SDS011;45905;50.570;10.428;2022-10-28T05:15:19;17.60;;;6.10;;
60032;SDS011;45905;50.570;10.428;2022-10-28T05:17:46;6.93;;;3.63;;
60032;SDS011;45905;50.570;10.428;2022-10-28T05:20:14;10.40;;;4.50;;
60032;SDS011;45905;50.570;10.428;2022-10-28T05:22:46;7.17;;;4.40;;
60032;SDS011;45905;50.570;10.428;2022-10-28T05:25:16;6.70;;;4.10;;
60032;SDS011;45905;50.570;10.428;2022-10-28T05:27:45;8.37;;;5.00;;
60032;SDS011;45905;50.570;10.428;2022-10-28T05:30:12;6.43;;;4.30;;
60032;SDS011;45905;50.570;10.428;2022-10-28T05:32:40;6.60;;;4.13;;
60032;SDS011;45905;50.570;10.428;2022-10-28T05:35:07;7.50;;;3.83;;
60032;SDS011;45905;50.570;10.428;2022-10-28T05:37:35;5.70;;;4.30;;
60032;SDS011;45905;50.570;10.428;2022-10-28T05:40:03;6.80;;;4.77;;
60032;SDS011;45905;50.570;10.428;2022-10-28T05:42:30;6.23;;;4.20;;
60032;SDS011;45905;50.570;10.428;2022-10-28T05:44:57;8.23;;;3.83;;
60032;SDS011;45905;50.570;10.428;2022-10-28T05:47:24;8.43;;;4.03;;
60032;SDS011;45905;50.570;10.428;2022-10-28T05:49:51;7.90;;;4.33;;
60032;SDS011;45905;50.570;10.428;2022-10-28T05:52:18;6.47;;;3.70;;
60032;SDS011;45905;50.570;10.428;2022-10-28T05:54:45;7.93;;;4.40;;
60032;SDS011;45905;50.570;10.428;2022-10-28T05:57:12;6.37;;;4.03;;
60032;SDS011;45905;50.570;10.428;2022-10-28T05:59:39;8.10;;;5.03;;
60032;SDS011;45905;50.570;10.428;2022-10-28T06:02:10;5.70;;;2.80;;
60032;SDS011;45905;50.570;10.428;2022-10-28T06:04:40;7.40;;;4.30;;
60032;SDS011;45905;50.570;10.428;2022-10-28T06:07:07;10.27;;;4.47;;
60032;SDS011;45905;50.570;10.428;2022-10-28T06:09:35;10.53;;;5.80;;
60032;SDS011;45905;50.570;10.428;2022-10-28T06:12:02;7.20;;;4.77;;
60032;SDS011;45905;50.570;10.428;2022-10-28T06:14:31;7.93;;;4.67;;
60032;SDS011;45905;50.570;10.428;2022-10-28T06:16:59;6.33;;;4.30;;
60032;SDS011;45905;50.570;10.428;2022-10-28T06:19:26;9.90;;;5.70;;
60032;SDS011;45905;50.570;10.428;2022-10-28T06:21:53;12.57;;;6.20;;
60032;SDS011;45905;50.570;10.428;2022-10-28T06:24:20;9.97;;;5.33;;
60032;SDS011;45905;50.570;10.428;2022-10-28T06:26:47;8.07;;;4.23;;
60032;SDS011;45905;50.570;10.428;2022-10-28T06:29:14;8.90;;;5.10;;
60032;SDS011;45905;50.570;10.428;2022-10-28T06:31:41;10.70;;;6.20;;
60032;SDS011;45905;50.570;10.428;2022-10-28T06:34:09;8.53;;;4.40;;
60032;SDS011;45905;50.570;10.428;2022-10-28T06:36:37;6.37;;;4.93;;
60032;SDS011;45905;50.570;10.428;2022-10-28T06:39:04;16.40;;;4.70;;
60032;SDS011;45905;50.570;10.428;2022-10-28T06:41:32;6.07;;;3.83;;
60032;SDS011;45905;50.570;10.428;2022-10-28T06:44:00;8.10;;;5.90;;
60032;SDS011;45905;50.570;10.428;2022-10-28T06:46:27;10.83;;;6.30;;
60032;SDS011;45905;50.570;10.428;2022-10-28T06:48:55;7.00;;;5.37;;
60032;SDS011;45905;50.570;10.428;2022-10-28T06:51:22;8.90;;;5.07;;
60032;SDS011;45905;50.570;10.428;2022-10-28T06:53:50;12.60;;;5.50;;
60032;SDS011;45905;50.570;10.428;2022-10-28T06:56:18;17.70;;;8.70;;
60032;SDS011;45905;50.570;10.428;2022-10-28T06:58:51;10.73;;;6.57;;
60032;SDS011;45905;50.570;10.428;2022-10-28T07:01:20;11.60;;;6.37;;
60032;SDS011;45905;50.570;10.428;2022-10-28T07:03:47;11.07;;;6.17;;
60032;SDS011;45905;50.570;10.428;2022-10-28T07:06:15;12.20;;;5.97;;
60032;SDS011;45905;50.570;10.428;2022-10-28T07:08:43;13.60;;;7.97;;
60032;SDS011;45905;50.570;10.428;2022-10-28T07:11:10;10.27;;;6.70;;
60032;SDS011;45905;50.570;10.428;2022-10-28T07:13:37;8.00;;;5.13;;
60032;SDS011;45905;50.570;10.428;2022-10-28T07:16:07;16.97;;;6.30;;
60032;SDS011;45905;50.570;10.428;2022-10-28T07:18:34;12.70;;;5.03;;
60032;SDS011;45905;50.570;10.428;2022-10-28T07:21:01;16.03;;;5.20;;
60032;SDS011;45905;50.570;10.428;2022-10-28T07:23:29;9.97;;;4.60;;
60032;SDS011;45905;50.570;10.428;2022-10-28T07:25:59;12.03;;;4.83;;
60032;SDS011;45905;50.570;10.428;2022-10-28T07:28:26;6.50;;;4.27;;
60032;SDS011;45905;50.570;10.428;2022-10-28T07:30:54;10.07;;;5.10;;
60032;SDS011;45905;50.570;10.428;2022-10-28T07:33:25;13.83;;;6.17;;
60032;SDS011;45905;50.570;10.428;2022-10-28T07:35:52;7.87;;;5.20;;
60032;SDS011;45905;50.570;10.428;2022-10-28T07:38:20;9.23;;;6.10;;
60032;SDS011;45905;50.570;10.428;2022-10-28T07:40:47;12.77;;;6.10;;
60032;SDS011;45905;50.570;10.428;2022-10-28T07:43:14;11.33;;;6.10;;
60032;SDS011;45905;50.570;10.428;2022-10-28T07:45:41;8.77;;;5.47;;
60032;SDS011;45905;50.570;10.428;2022-10-28T07:48:08;11.47;;;7.07;;
60032;SDS011;45905;50.570;10.428;2022-10-28T07:50:36;9.10;;;5.70;;
60032;SDS011;45905;50.570;10.428;2022-10-28T07:53:03;9.60;;;6.47;;
60032;SDS011;45905;50.570;10.428;2022-10-28T07:55:30;15.93;;;7.17;;
60032;SDS011;45905;50.570;10.428;2022-10-28T07:57:57;9.70;;;6.20;;
60032;SDS011;45905;50.570;10.428;2022-10-28T08:00:24;7.47;;;5.27;;
60032;SDS011;45905;50.570;10.428;2022-10-28T08:02:51;14.07;;;5.90;;
60032;SDS011;45905;50.570;10.428;2022-10-28T08:05:18;13.30;;;4.97;;
60032;SDS011;45905;50.570;10.428;2022-10-28T08:07:45;8.80;;;4.70;;
60032;SDS011;45905;50.570;10.428;2022-10-28T08:10:13;10.07;;;4.70;;
60032;SDS011;45905;50.570;10.428;2022-10-28T08:12:40;9.33;;;5.10;;
60032;SDS011;45905;50.570;10.428;2022-10-28T08:15:07;10.23;;;5.40;;
60032;SDS011;45905;50.570;10.428;2022-10-28T08:17:35;11.60;;;6.80;;
60032;SDS011;45905;50.570;10.428;2022-10-28T08:20:03;9.03;;;5.80;;
60032;SDS011;45905;50.570;10.428;2022-10-28T08:22:31;9.57;;;5.00;;
60032;SDS011;45905;50.570;10.428;2022-10-28T08:24:58;11.93;;;6.70;;
60032;SDS011;45905;50.570;10.428;2022-10-28T08:27:25;7.70;;;4.20;;
60032;SDS011;45905;50.570;10.428;2022-10-28T08:29:52;7.83;;;4.50;;
60032;SDS011;45905;50.570;10.428;2022-10-28T08:32:19;18.57;;;5.93;;
60032;SDS011;45905;50.570;10.428;2022-10-28T08:34:46;9.10;;;5.67;;
60032;SDS011;45905;50.570;10.428;2022-10-28T08:37:13;6.60;;;4.60;;
60032;SDS011;45905;50.570;10.428;2022-10-28T08:39:41;12.73;;;5.43;;
60032;SDS011;45905;50.570;10.428;2022-10-28T08:50:55;9.00;;;5.03;;
60032;SDS011;45905;50.570;10.428;2022-10-28T08:53:54;13.83;;;5.77;;
60032;SDS011;45905;50.570;10.428;2022-10-28T08:56:33;11.67;;;5.93;;
60032;SDS011;45905;50.570;10.428;2022-10-28T08:59:17;12.60;;;5.67;;
60032;SDS011;45905;50.570;10.428;2022-10-28T09:02:00;11.40;;;6.60;;
60032;SDS011;45905;50.570;10.428;2022-10-28T09:04:37;8.50;;;5.57;;
60032;SDS011;45905;50.570;10.428;2022-10-28T09:07:12;11.57;;;5.80;;
60032;SDS011;45905;50.570;10.428;2022-10-28T09:09:44;7.90;;;4.70;;
60032;SDS011;45905;50.570;10.428;2022-10-28T09:12:35;14.50;;;5.67;;
60032;SDS011;45905;50.570;10.428;2022-10-28T09:18:55;5.13;;;4.23;;
60032;SDS011;45905;50.570;10.428;2022-10-28T09:21:32;7.70;;;4.10;;
60032;SDS011;45905;50.570;10.428;2022-10-28T09:24:22;8.37;;;4.70;;
60032;SDS011;45905;50.570;10.428;2022-10-28T09:35:42;9.40;;;4.33;;
60032;SDS011;45905;50.570;10.428;2022-10-28T09:41:14;25.30;;;8.63;;
60032;SDS011;45905;50.570;10.428;2022-10-28T09:43:49;8.20;;;4.70;;
60032;SDS011;45905;50.570;10.428;2022-10-28T09:46:24;14.00;;;4.77;;
60032;SDS011;45905;50.570;10.428;2022-10-28T09:49:03;6.60;;;4.00;;
60032;SDS011;45905;50.570;10.428;2022-10-28T09:51:51;20.60;;;4.17;;
60032;SDS011;45905;50.570;10.428;2022-10-28T09:54:41;7.63;;;4.03;;
60032;SDS011;45905;50.570;10.428;2022-10-28T09:57:17;6.07;;;4.10;;
60032;SDS011;45905;50.570;10.428;2022-10-28T09:59:46;12.63;;;3.60;;
60032;SDS011;45905;50.570;10.428;2022-10-28T10:02:22;9.40;;;3.30;;
60032;SDS011;45905;50.570;10.428;2022-10-28T10:04:55;17.33;;;5.37;;
60032;SDS011;45905;50.570;10.428;2022-10-28T10:07:29;23.43;;;5.83;;
60032;SDS011;45905;50.570;10.428;2022-10-28T10:10:14;28.70;;;10.30;;
60032;SDS011;45905;50.570;10.428;2022-10-28T10:12:58;32.43;;;8.43;;
60032;SDS011;45905;50.570;10.428;2022-10-28T10:15:37;9.90;;;4.80;;
60032;SDS011;45905;50.570;10.428;2022-10-28T10:18:21;8.07;;;4.43;;
60032;SDS011;45905;50.570;10.428;2022-10-28T10:20:54;12.90;;;6.30;;
60032;SDS011;45905;50.570;10.428;2022-10-28T10:28:39;9.13;;;4.27;;
60032;SDS011;45905;50.570;10.428;2022-10-28T10:31:24;11.40;;;6.43;;
60032;SDS011;45905;50.570;10.428;2022-10-28T10:33:53;12.50;;;4.10;;
60032;SDS011;45905;50.570;10.428;2022-10-28T10:36:23;10.60;;;4.63;;
60032;SDS011;45905;50.570;10.428;2022-10-28T10:38:58;11.40;;;4.77;;
60032;SDS011;45905;50.570;10.428;2022-10-28T10:41:35;9.90;;;3.53;;
60032;SDS011;45905;50.570;10.428;2022-10-28T10:49:32;7.90;;;5.03;;
60032;SDS011;45905;50.570;10.428;2022-10-28T10:52:05;7.47;;;3.40;;
60032;SDS011;45905;50.570;10.428;2022-10-28T10:57:56;5.40;;;3.00;;
60032;SDS011;45905;50.570;10.428;2022-10-28T11:00:29;4.53;;;3.10;;
60032;SDS011;45905;50.570;10.428;2022-10-28T11:03:02;8.37;;;3.60;;
60032;SDS011;45905;50.570;10.428;2022-10-28T11:05:32;4.63;;;3.10;;
60032;SDS011;45905;50.570;10.428;2022-10-28T11:08:03;10.53;;;3.60;;
60032;SDS011;45905;50.570;10.428;2022-10-28T11:10:33;9.80;;;3.33;;
60032;SDS011;45905;50.570;10.428;2022-10-28T11:13:04;5.77;;;3.87;;
60032;SDS011;45905;50.570;10.428;2022-10-28T11:15:58;6.40;;;3.17;;
60032;SDS011;45905;50.570;10.428;2022-10-28T11:18:37;10.53;;;4.60;;
60032;SDS011;45905;50.570;10.428;2022-10-28T11:29:59;11.73;;;2.83;;
60032;SDS011;45905;50.570;10.428;2022-10-28T11:35:47;7.17;;;3.30;;
60032;SDS011;45905;50.570;10.428;2022-10-28T11:44:22;11.10;;;4.20;;
60032;SDS011;45905;50.570;10.428;2022-10-28T11:47:24;6.37;;;3.67;;
60032;SDS011;45905;50.570;10.428;2022-10-28T11:50:21;16.03;;;3.60;;
60032;SDS011;45905;50.570;10.428;2022-10-28T11:55:59;5.47;;;2.63;;
60032;SDS011;45905;50.570;10.428;2022-10-28T12:12:49;3.87;;;2.43;;
60032;SDS011;45905;50.570;10.428;2022-10-28T12:20:52;13.63;;;3.43;;
60032;SDS011;45905;50.570;10.428;2022-10-28T12:23:37;14.57;;;3.23;;
60032;SDS011;45905;50.570;10.428;2022-10-28T12:26:07;9.80;;;3.60;;
60032;SDS011;45905;50.570;10.428;2022-10-28T12:28:44;6.73;;;3.20;;
60032;SDS011;45905;50.570;10.428;2022-10-28T12:31:24;9.97;;;2.77;;
60032;SDS011;45905;50.570;10.428;2022-10-28T12:33:58;4.27;;;3.13;;
60032;SDS011;45905;50.570;10.428;2022-10-28T12:36:40;7.07;;;3.17;;
60032;SDS011;45905;50.570;10.428;2022-10-28T12:42:28;9.50;;;3.37;;
60032;SDS011;45905;50.570;10.428;2022-10-28T12:45:27;9.70;;;3.63;;
60032;SDS011;45905;50.570;10.428;2022-10-28T12:47:58;3.70;;;2.50;;
60032;SDS011;45905;50.570;10.428;2022-10-28T12:50:52;6.23;;;3.37;;
60032;SDS011;45905;50.570;10.428;2022-10-28T12:56:19;3.03;;;2.03;;
60032;SDS011;45905;50.570;10.428;2022-10-28T12:59:03;3.73;;;2.40;;
60032;SDS011;45905;50.570;10.428;2022-10-28T13:01:42;4.80;;;1.90;;
60032;SDS011;45905;50.570;10.428;2022-10-28T13:04:11;6.57;;;2.80;;
60032;SDS011;45905;50.570;10.428;2022-10-28T13:06:46;4.90;;;2.90;;
60032;SDS011;45905;50.570;10.428;2022-10-28T13:13:08;2.80;;;1.73;;
60032;SDS011;45905;50.570;10.428;2022-10-28T13:16:16;3.00;;;2.10;;
60032;SDS011;45905;50.570;10.428;2022-10-28T13:28:14;11.53;;;2.50;;
60032;SDS011;45905;50.570;10.428;2022-10-28T13:31:00;9.30;;;2.57;;
60032;SDS011;45905;50.570;10.428;2022-10-28T13:33:31;6.10;;;2.80;;
60032;SDS011;45905;50.570;10.428;2022-10-28T13:36:07;13.40;;;2.73;;
60032;SDS011;45905;50.570;10.428;2022-10-28T13:38:52;8.60;;;1.80;;
60032;SDS011;45905;50.570;10.428;2022-10-28T13:41:30;3.10;;;1.80;;
60032;SDS011;45905;50.570;10.428;2022-10-28T13:49:26;4.43;;;2.40;;
60032;SDS011;45905;50.570;10.428;2022-10-28T14:02:48;9.97;;;2.17;;
60032;SDS011;45905;50.570;10.428;2022-10-28T14:05:24;2.00;;;1.80;;
60032;SDS011;45905;50.570;10.428;2022-10-28T14:08:02;2.70;;;1.60;;
60032;SDS011;45905;50.570;10.428;2022-10-28T14:13:53;4.87;;;2.40;;
60032;SDS011;45905;50.570;10.428;2022-10-28T14:19:03;3.90;;;1.73;;
60032;SDS011;45905;50.570;10.428;2022-10-28T14:24:34;4.63;;;1.57;;
60032;SDS011;45905;50.570;10.428;2022-10-28T14:32:57;2.73;;;1.70;;
60032;SDS011;45905;50.570;10.428;2022-10-28T14:35:37;5.70;;;2.67;;
60032;SDS011;45905;50.570;10.428;2022-10-28T14:38:27;12.63;;;2.37;;
60032;SDS011;45905;50.570;10.428;2022-10-28T14:41:22;3.67;;;1.83;;
60032;SDS011;45905;50.570;10.428;2022-10-28T14:53:24;6.13;;;2.57;;
60032;SDS011;45905;50.570;10.428;2022-10-28T14:56:01;7.13;;;2.73;;
60032;SDS011;45905;50.570;10.428;2022-10-28T14:58:36;6.67;;;2.97;;
60032;SDS011;45905;50.570;10.428;2022-10-28T15:03:53;6.73;;;2.63;;
60032;SDS011;45905;50.570;10.428;2022-10-28T15:06:41;4.23;;;2.50;;
60032;SDS011;45905;50.570;10.428;2022-10-28T15:11:55;5.87;;;3.27;;
60032;SDS011;45905;50.570;10.428;2022-10-28T15:14:28;8.50;;;3.87;;
60032;SDS011;45905;50.570;10.428;2022-10-28T15:17:15;8.17;;;4.30;;
60032;SDS011;45905;50.570;10.428;2022-10-28T15:19:45;13.50;;;3.80;;
60032;SDS011;45905;50.570;10.428;2022-10-28T15:22:28;8.80;;;3.20;;
60032;SDS011;45905;50.570;10.428;2022-10-28T15:24:59;8.57;;;3.50;;
60032;SDS011;45905;50.570;10.428;2022-10-28T15:27:37;6.60;;;3.10;;
60032;SDS011;45905;50.570;10.428;2022-10-28T15:30:20;7.87;;;3.10;;
60032;SDS011;45905;50.570;10.428;2022-10-28T15:32:51;6.37;;;2.57;;
60032;SDS011;45905;50.570;10.428;2022-10-28T15:35:34;9.90;;;2.93;;
60032;SDS011;45905;50.570;10.428;2022-10-28T15:38:49;5.20;;;2.57;;
60032;SDS011;45905;50.570;10.428;2022-10-28T15:43:55;7.60;;;2.77;;
60032;SDS011;45905;50.570;10.428;2022-10-28T15:46:26;4.00;;;3.20;;
60032;SDS011;45905;50.570;10.428;2022-10-28T15:48:55;8.00;;;2.63;;
60032;SDS011;45905;50.570;10.428;2022-10-28T15:51:25;3.53;;;2.60;;
60032;SDS011;45905;50.570;10.428;2022-10-28T15:53:53;6.03;;;2.70;;
60032;SDS011;45905;50.570;10.428;2022-10-28T15:57:11;7.30;;;2.37;;
60032;SDS011;45905;50.570;10.428;2022-10-28T15:59:29;7.57;;;3.00;;
60032;SDS011;45905;50.570;10.428;2022-10-28T16:01:56;6.37;;;2.67;;
60032;SDS011;45905;50.570;10.428;2022-10-28T16:06:55;6.63;;;3.23;;
60032;SDS011;45905;50.570;10.428;2022-10-28T16:09:27;7.43;;;2.73;;
60032;SDS011;45905;50.570;10.428;2022-10-28T16:11:56;9.27;;;3.43;;
60032;SDS011;45905;50.570;10.428;2022-10-28T16:14:29;5.97;;;2.47;;
60032;SDS011;45905;50.570;10.428;2022-10-28T16:19:42;8.33;;;5.40;;
60032;SDS011;45905;50.570;10.428;2022-10-28T16:22:14;6.80;;;4.73;;
60032;SDS011;45905;50.570;10.428;2022-10-28T16:24:44;9.30;;;3.80;;
60032;SDS011;45905;50.570;10.428;2022-10-28T16:27:21;5.67;;;3.10;;
60032;SDS011;45905;50.570;10.428;2022-10-28T16:29:51;8.77;;;3.97;;
60032;SDS011;45905;50.570;10.428;2022-10-28T16:32:25;6.90;;;3.30;;
60032;SDS011;45905;50.570;10.428;2022-10-28T16:35:00;4.67;;;2.17;;
60032;SDS011;45905;50.570;10.428;2022-10-28T16:37:29;21.87;;;2.87;;
60032;SDS011;45905;50.570;10.428;2022-10-28T16:39:59;4.07;;;2.87;;
60032;SDS011;45905;50.570;10.428;2022-10-28T16:42:26;5.87;;;3.10;;
60032;SDS011;45905;50.570;10.428;2022-10-28T16:44:53;10.60;;;5.17;;
60032;SDS011;45905;50.570;10.428;2022-10-28T16:47:21;9.63;;;4.60;;
60032;SDS011;45905;50.570;10.428;2022-10-28T16:49:52;8.67;;;3.30;;
60032;SDS011;45905;50.570;10.428;2022-10-28T16:52:28;5.90;;;3.93;;
60032;SDS011;45905;50.570;10.428;2022-10-28T16:54:56;6.93;;;3.57;;
60032;SDS011;45905;50.570;10.428;2022-10-28T16:57:24;4.33;;;2.50;;
60032;SDS011;45905;50.570;10.428;2022-10-28T16:59:52;5.20;;;3.03;;
60032;SDS011;45905;50.570;10.428;2022-10-28T17:04:56;4.10;;;2.10;;
60032;SDS011;45905;50.570;10.428;2022-10-28T17:07:24;6.03;;;2.70;;
60032;SDS011;45905;50.570;10.428;2022-10-28T17:09:53;10.07;;;2.60;;
60032;SDS011;45905;50.570;10.428;2022-10-28T17:12:26;5.50;;;2.00;;
60032;SDS011;45905;50.570;10.428;2022-10-28T17:14:53;3.33;;;2.23;;
60032;SDS011;45905;50.570;10.428;2022-10-28T17:17:20;12.20;;;2.97;;
60032;SDS011;45905;50.570;10.428;2022-10-28T17:19:47;4.10;;;2.00;;
60032;SDS011;45905;50.570;10.428;2022-10-28T17:22:14;5.43;;;2.37;;
60032;SDS011;45905;50.570;10.428;2022-10-28T17:24:42;5.20;;;2.20;;
60032;SDS011;45905;50.570;10.428;2022-10-28T17:27:09;7.50;;;2.37;;
60032;SDS011;45905;50.570;10.428;2022-10-28T17:29:36;4.00;;;2.93;;
60032;SDS011;45905;50.570;10.428;2022-10-28T17:32:04;7.23;;;2.57;;
60032;SDS011;45905;50.570;10.428;2022-10-28T17:34:34;4.07;;;2.70;;
60032;SDS011;45905;50.570;10.428;2022-10-28T17:37:01;3.63;;;2.00;;
60032;SDS011;45905;50.570;10.428;2022-10-28T17:39:29;9.03;;;2.40;;
60032;SDS011;45905;50.570;10.428;2022-10-28T17:41:57;5.20;;;2.20;;
60032;SDS011;45905;50.570;10.428;2022-10-28T17:44:24;3.03;;;2.30;;
60032;SDS011;45905;50.570;10.428;2022-10-28T17:46:51;4.87;;;2.50;;
60032;SDS011;45905;50.570;10.428;2022-10-28T17:49:18;13.17;;;4.43;;
60032;SDS011;45905;50.570;10.428;2022-10-28T17:51:45;7.47;;;3.77;;
60032;SDS011;45905;50.570;10.428;2022-10-28T17:54:12;12.50;;;4.63;;
60032;SDS011;45905;50.570;10.428;2022-10-28T17:56:39;17.37;;;5.00;;
60032;SDS011;45905;50.570;10.428;2022-10-28T17:59:07;9.80;;;5.53;;
60032;SDS011;45905;50.570;10.428;2022-10-28T18:01:34;7.30;;;3.63;;
60032;SDS011;45905;50.570;10.428;2022-10-28T18:04:02;9.13;;;3.47;;
60032;SDS011;45905;50.570;10.428;2022-10-28T18:06:31;8.03;;;3.90;;
60032;SDS011;45905;50.570;10.428;2022-10-28T18:08:58;11.63;;;3.20;;
60032;SDS011;45905;50.570;10.428;2022-10-28T18:11:25;12.83;;;4.30;;
60032;SDS011;45905;50.570;10.428;2022-10-28T18:13:53;17.07;;;4.40;;
60032;SDS011;45905;50.570;10.428;2022-10-28T18:16:22;4.40;;;3.27;;
60032;SDS011;45905;50.570;10.428;2022-10-28T18:18:53;4.63;;;2.70;;
60032;SDS011;45905;50.570;10.428;2022-10-28T18:21:21;4.60;;;3.27;;